sensor_id;sensor_type;location;lat;lon;timestamp;temperature;humidity
21849;DHT22;11089;49.852;19.700;2023-05-07T00:00:18;11.10;1.00
21849;DHT22;11089;49.852;19.700;2023-05-07T00:03:21;11.10;1.00
21849;DHT22;11089;49.852;19.700;2023-05-07T00:06:22;11.10;1.00
21849;DHT22;11089;49.852;19.700;2023-05-07T00:09:23;11.00;1.00
21849;DHT22;11089;49.852;19.700;2023-05-07T00:12:24;11.00;63.60
21849;DHT22;11089;49.852;19.700;2023-05-07T00:15:26;11.00;99.90
21849;DHT22;11089;49.852;19.700;2023-05-07T00:18:26;10.90;99.90
21849;DHT22;11089;49.852;19.700;2023-05-07T00:21:27;10.90;4.70
21849;DHT22;11089;49.852;19.700;2023-05-07T00:24:28;10.90;99.90
21849;DHT22;11089;49.852;19.700;2023-05-07T00:27:29;10.90;99.90
21849;DHT22;11089;49.852;19.700;2023-05-07T00:30:31;10.90;99.90
21849;DHT22;11089;49.852;19.700;2023-05-07T00:33:32;10.90;1.00
21849;DHT22;11089;49.852;19.700;2023-05-07T00:36:33;11.00;7.80
21849;DHT22;11089;49.852;19.700;2023-05-07T00:39:34;11.00;1.00
21849;DHT22;11089;49.852;19.700;2023-05-07T00:42:35;11.00;1.00
21849;DHT22;11089;49.852;19.700;2023-05-07T00:45:36;10.90;1.00
21849;DHT22;11089;49.852;19.700;2023-05-07T00:48:37;11.00;1.00
21849;DHT22;11089;49.852;19.700;2023-05-07T00:51:38;10.90;1.00
21849;DHT22;11089;49.852;19.700;2023-05-07T00:54:40;10.90;1.00
21849;DHT22;11089;49.852;19.700;2023-05-07T00:57:42;10.80;1.00
21849;DHT22;11089;49.852;19.700;2023-05-07T01:00:42;10.80;1.00
21849;DHT22;11089;49.852;19.700;2023-05-07T01:03:43;10.80;1.00
21849;DHT22;11089;49.852;19.700;2023-05-07T01:06:45;10.90;1.00
21849;DHT22;11089;49.852;19.700;2023-05-07T01:09:46;10.90;1.00
21849;DHT22;11089;49.852;19.700;2023-05-07T01:12:48;10.80;1.00
21849;DHT22;11089;49.852;19.700;2023-05-07T01:15:50;10.70;1.00
21849;DHT22;11089;49.852;19.700;2023-05-07T01:18:51;10.70;1.00
21849;DHT22;11089;49.852;19.700;2023-05-07T01:22:00;10.70;1.00
21849;DHT22;11089;49.852;19.700;2023-05-07T01:25:03;10.70;1.00
21849;DHT22;11089;49.852;19.700;2023-05-07T01:28:04;10.70;1.00
21849;DHT22;11089;49.852;19.700;2023-05-07T01:31:06;10.70;1.00
21849;DHT22;11089;49.852;19.700;2023-05-07T01:34:09;10.70;1.00
21849;DHT22;11089;49.852;19.700;2023-05-07T01:37:12;10.70;1.00
21849;DHT22;11089;49.852;19.700;2023-05-07T01:40:13;10.70;46.10
21849;DHT22;11089;49.852;19.700;2023-05-07T01:43:15;10.70;1.00
21849;DHT22;11089;49.852;19.700;2023-05-07T01:46:16;10.70;1.00
21849;DHT22;11089;49.852;19.700;2023-05-07T01:49:18;10.70;95.30
21849;DHT22;11089;49.852;19.700;2023-05-07T01:52:19;10.70;79.80
21849;DHT22;11089;49.852;19.700;2023-05-07T01:55:20;10.70;99.90
21849;DHT22;11089;49.852;19.700;2023-05-07T01:58:21;10.70;84.40
21849;DHT22;11089;49.852;19.700;2023-05-07T02:01:22;10.70;85.60
21849;DHT22;11089;49.852;19.700;2023-05-07T02:04:23;10.70;1.00
21849;DHT22;11089;49.852;19.700;2023-05-07T02:07:24;10.70;11.40
21849;DHT22;11089;49.852;19.700;2023-05-07T02:10:25;10.70;1.00
21849;DHT22;11089;49.852;19.700;2023-05-07T02:13:31;10.80;1.00
21849;DHT22;11089;49.852;19.700;2023-05-07T02:16:32;10.70;1.00
21849;DHT22;11089;49.852;19.700;2023-05-07T02:19:33;10.80;1.00
21849;DHT22;11089;49.852;19.700;2023-05-07T02:22:34;10.80;1.00
21849;DHT22;11089;49.852;19.700;2023-05-07T02:25:35;10.80;1.00
21849;DHT22;11089;49.852;19.700;2023-05-07T02:28:36;10.70;1.00
21849;DHT22;11089;49.852;19.700;2023-05-07T02:31:37;10.70;1.00
21849;DHT22;11089;49.852;19.700;2023-05-07T02:34:38;10.70;1.00
21849;DHT22;11089;49.852;19.700;2023-05-07T02:37:39;10.70;15.20
21849;DHT22;11089;49.852;19.700;2023-05-07T02:40:40;10.70;32.40
21849;DHT22;11089;49.852;19.700;2023-05-07T02:43:41;10.60;99.90
21849;DHT22;11089;49.852;19.700;2023-05-07T02:46:42;10.70;43.40
21849;DHT22;11089;49.852;19.700;2023-05-07T02:49:43;10.70;1.00
21849;DHT22;11089;49.852;19.700;2023-05-07T02:52:44;10.70;99.90
21849;DHT22;11089;49.852;19.700;2023-05-07T02:55:45;10.70;99.90
21849;DHT22;11089;49.852;19.700;2023-05-07T02:58:46;10.70;94.40
21849;DHT22;11089;49.852;19.700;2023-05-07T03:01:47;10.70;99.90
21849;DHT22;11089;49.852;19.700;2023-05-07T03:04:48;10.60;99.90
21849;DHT22;11089;49.852;19.700;2023-05-07T03:07:49;10.60;99.90
21849;DHT22;11089;49.852;19.700;2023-05-07T03:10:50;10.60;99.90
21849;DHT22;11089;49.852;19.700;2023-05-07T03:13:51;10.70;99.90
21849;DHT22;11089;49.852;19.700;2023-05-07T03:16:53;10.70;99.90
21849;DHT22;11089;49.852;19.700;2023-05-07T03:19:53;10.60;99.90
21849;DHT22;11089;49.852;19.700;2023-05-07T03:22:54;10.60;99.90
21849;DHT22;11089;49.852;19.700;2023-05-07T03:25:55;10.60;86.50
21849;DHT22;11089;49.852;19.700;2023-05-07T03:28:56;10.60;99.90
21849;DHT22;11089;49.852;19.700;2023-05-07T03:31:57;10.60;99.90
21849;DHT22;11089;49.852;19.700;2023-05-07T03:34:58;10.60;99.90
21849;DHT22;11089;49.852;19.700;2023-05-07T03:37:59;10.60;99.90
21849;DHT22;11089;49.852;19.700;2023-05-07T03:41:00;10.60;99.90
21849;DHT22;11089;49.852;19.700;2023-05-07T03:44:01;10.60;99.90
21849;DHT22;11089;49.852;19.700;2023-05-07T03:47:03;10.60;19.90
21849;DHT22;11089;49.852;19.700;2023-05-07T03:50:04;10.50;1.00
21849;DHT22;11089;49.852;19.700;2023-05-07T03:53:05;10.40;99.90
21849;DHT22;11089;49.852;19.700;2023-05-07T03:56:06;10.40;99.90
21849;DHT22;11089;49.852;19.700;2023-05-07T03:59:07;10.40;99.90
21849;DHT22;11089;49.852;19.700;2023-05-07T04:02:08;10.40;99.90
21849;DHT22;11089;49.852;19.700;2023-05-07T04:05:09;10.30;99.90
21849;DHT22;11089;49.852;19.700;2023-05-07T04:08:10;10.30;99.90
21849;DHT22;11089;49.852;19.700;2023-05-07T04:11:11;10.40;99.90
21849;DHT22;11089;49.852;19.700;2023-05-07T04:14:12;10.30;99.90
21849;DHT22;11089;49.852;19.700;2023-05-07T04:17:13;10.20;99.90
21849;DHT22;11089;49.852;19.700;2023-05-07T04:20:15;10.30;99.90
21849;DHT22;11089;49.852;19.700;2023-05-07T04:23:16;10.30;99.90
21849;DHT22;11089;49.852;19.700;2023-05-07T04:26:17;10.30;99.90
21849;DHT22;11089;49.852;19.700;2023-05-07T04:29:18;10.30;99.90
21849;DHT22;11089;49.852;19.700;2023-05-07T04:32:19;10.30;99.90
21849;DHT22;11089;49.852;19.700;2023-05-07T04:35:20;10.30;76.20
21849;DHT22;11089;49.852;19.700;2023-05-07T04:38:21;10.20;99.90
21849;DHT22;11089;49.852;19.700;2023-05-07T04:41:24;10.20;99.90
21849;DHT22;11089;49.852;19.700;2023-05-07T04:44:25;10.20;95.00
21849;DHT22;11089;49.852;19.700;2023-05-07T04:47:26;10.20;92.80
21849;DHT22;11089;49.852;19.700;2023-05-07T04:50:27;10.10;99.90
21849;DHT22;11089;49.852;19.700;2023-05-07T04:53:28;10.10;99.90
21849;DHT22;11089;49.852;19.700;2023-05-07T04:56:29;10.10;99.90
21849;DHT22;11089;49.852;19.700;2023-05-07T04:59:30;10.10;99.90
21849;DHT22;11089;49.852;19.700;2023-05-07T05:02:31;10.00;99.90
21849;DHT22;11089;49.852;19.700;2023-05-07T05:05:32;9.90;99.90
21849;DHT22;11089;49.852;19.700;2023-05-07T05:08:33;9.90;99.90
21849;DHT22;11089;49.852;19.700;2023-05-07T05:11:34;9.90;99.90
21849;DHT22;11089;49.852;19.700;2023-05-07T05:14:35;10.00;99.90
21849;DHT22;11089;49.852;19.700;2023-05-07T05:17:36;10.00;99.90
21849;DHT22;11089;49.852;19.700;2023-05-07T05:20:37;10.00;99.90
21849;DHT22;11089;49.852;19.700;2023-05-07T05:23:38;10.00;99.90
21849;DHT22;11089;49.852;19.700;2023-05-07T05:26:39;10.10;99.90
21849;DHT22;11089;49.852;19.700;2023-05-07T05:29:40;10.00;31.70
21849;DHT22;11089;49.852;19.700;2023-05-07T05:32:41;9.90;1.00
21849;DHT22;11089;49.852;19.700;2023-05-07T05:35:42;9.90;1.00
21849;DHT22;11089;49.852;19.700;2023-05-07T05:38:43;9.90;1.00
21849;DHT22;11089;49.852;19.700;2023-05-07T05:41:44;9.90;1.00
21849;DHT22;11089;49.852;19.700;2023-05-07T05:44:45;9.90;1.00
21849;DHT22;11089;49.852;19.700;2023-05-07T05:47:46;9.80;1.00
21849;DHT22;11089;49.852;19.700;2023-05-07T05:50:47;9.80;1.00
21849;DHT22;11089;49.852;19.700;2023-05-07T05:53:48;9.90;1.00
21849;DHT22;11089;49.852;19.700;2023-05-07T05:56:49;9.80;1.00
21849;DHT22;11089;49.852;19.700;2023-05-07T05:59:50;9.80;1.00
21849;DHT22;11089;49.852;19.700;2023-05-07T06:02:51;9.60;1.00
21849;DHT22;11089;49.852;19.700;2023-05-07T06:05:52;9.70;1.00
21849;DHT22;11089;49.852;19.700;2023-05-07T06:08:53;9.60;1.00
21849;DHT22;11089;49.852;19.700;2023-05-07T06:11:54;9.60;1.00
21849;DHT22;11089;49.852;19.700;2023-05-07T06:14:55;9.60;1.00
21849;DHT22;11089;49.852;19.700;2023-05-07T06:17:56;9.60;1.00
21849;DHT22;11089;49.852;19.700;2023-05-07T06:20:58;9.60;1.00
21849;DHT22;11089;49.852;19.700;2023-05-07T06:23:58;9.50;1.00
21849;DHT22;11089;49.852;19.700;2023-05-07T06:26:59;9.40;1.00
21849;DHT22;11089;49.852;19.700;2023-05-07T06:30:00;9.40;1.00
21849;DHT22;11089;49.852;19.700;2023-05-07T06:33:01;9.50;1.00
21849;DHT22;11089;49.852;19.700;2023-05-07T06:36:02;9.60;1.00
21849;DHT22;11089;49.852;19.700;2023-05-07T06:39:03;9.60;1.00
21849;DHT22;11089;49.852;19.700;2023-05-07T06:42:04;9.60;1.00
21849;DHT22;11089;49.852;19.700;2023-05-07T06:45:08;9.60;1.00
21849;DHT22;11089;49.852;19.700;2023-05-07T06:48:09;9.50;1.00
21849;DHT22;11089;49.852;19.700;2023-05-07T06:51:10;9.40;1.00
21849;DHT22;11089;49.852;19.700;2023-05-07T06:54:11;9.40;1.00
21849;DHT22;11089;49.852;19.700;2023-05-07T06:57:12;9.50;1.00
21849;DHT22;11089;49.852;19.700;2023-05-07T07:00:13;9.30;1.00
21849;DHT22;11089;49.852;19.700;2023-05-07T07:03:14;9.20;1.00
21849;DHT22;11089;49.852;19.700;2023-05-07T07:06:15;9.10;1.00
21849;DHT22;11089;49.852;19.700;2023-05-07T07:09:16;9.10;1.00
21849;DHT22;11089;49.852;19.700;2023-05-07T07:12:17;9.20;1.00
21849;DHT22;11089;49.852;19.700;2023-05-07T07:15:19;9.20;1.00
21849;DHT22;11089;49.852;19.700;2023-05-07T07:18:21;9.30;1.00
21849;DHT22;11089;49.852;19.700;2023-05-07T07:21:22;9.30;1.00
21849;DHT22;11089;49.852;19.700;2023-05-07T07:24:23;9.40;1.00
21849;DHT22;11089;49.852;19.700;2023-05-07T07:27:24;9.30;1.00
21849;DHT22;11089;49.852;19.700;2023-05-07T07:30:25;9.40;1.00
21849;DHT22;11089;49.852;19.700;2023-05-07T07:33:26;9.40;1.00
21849;DHT22;11089;49.852;19.700;2023-05-07T07:36:27;9.40;1.00
21849;DHT22;11089;49.852;19.700;2023-05-07T07:39:28;9.30;1.00
21849;DHT22;11089;49.852;19.700;2023-05-07T07:42:29;9.20;1.00
21849;DHT22;11089;49.852;19.700;2023-05-07T07:45:30;9.30;1.00
21849;DHT22;11089;49.852;19.700;2023-05-07T07:48:31;9.30;1.00
21849;DHT22;11089;49.852;19.700;2023-05-07T07:51:32;9.30;1.00
21849;DHT22;11089;49.852;19.700;2023-05-07T07:54:33;9.20;1.00
21849;DHT22;11089;49.852;19.700;2023-05-07T07:57:34;9.20;1.00
21849;DHT22;11089;49.852;19.700;2023-05-07T08:00:35;9.20;1.00
21849;DHT22;11089;49.852;19.700;2023-05-07T08:03:36;9.20;1.00
21849;DHT22;11089;49.852;19.700;2023-05-07T08:06:38;9.20;1.00
21849;DHT22;11089;49.852;19.700;2023-05-07T08:09:40;9.20;1.00
21849;DHT22;11089;49.852;19.700;2023-05-07T08:12:41;9.20;99.90
21849;DHT22;11089;49.852;19.700;2023-05-07T08:15:42;9.00;1.00
21849;DHT22;11089;49.852;19.700;2023-05-07T08:18:43;9.10;1.00
21849;DHT22;11089;49.852;19.700;2023-05-07T08:21:44;9.20;1.00
21849;DHT22;11089;49.852;19.700;2023-05-07T08:24:45;9.10;1.00
21849;DHT22;11089;49.852;19.700;2023-05-07T08:27:46;9.00;1.00
21849;DHT22;11089;49.852;19.700;2023-05-07T08:30:47;9.00;1.00
21849;DHT22;11089;49.852;19.700;2023-05-07T08:33:48;9.10;1.00
21849;DHT22;11089;49.852;19.700;2023-05-07T08:36:49;9.10;1.00
21849;DHT22;11089;49.852;19.700;2023-05-07T08:39:50;9.20;1.00
21849;DHT22;11089;49.852;19.700;2023-05-07T08:42:53;9.10;1.00
21849;DHT22;11089;49.852;19.700;2023-05-07T08:45:54;9.20;99.90
21849;DHT22;11089;49.852;19.700;2023-05-07T08:48:56;9.30;99.90
21849;DHT22;11089;49.852;19.700;2023-05-07T08:51:57;9.20;99.90
21849;DHT22;11089;49.852;19.700;2023-05-07T08:54:59;9.10;99.90
21849;DHT22;11089;49.852;19.700;2023-05-07T08:58:01;9.10;99.90
21849;DHT22;11089;49.852;19.700;2023-05-07T09:01:10;9.10;99.90
21849;DHT22;11089;49.852;19.700;2023-05-07T09:04:13;9.10;99.90
21849;DHT22;11089;49.852;19.700;2023-05-07T09:07:14;9.20;99.90
21849;DHT22;11089;49.852;19.700;2023-05-07T09:10:15;9.20;99.90
21849;DHT22;11089;49.852;19.700;2023-05-07T09:13:16;9.20;99.90
21849;DHT22;11089;49.852;19.700;2023-05-07T09:16:20;9.10;99.90
21849;DHT22;11089;49.852;19.700;2023-05-07T09:19:26;9.10;99.90
21849;DHT22;11089;49.852;19.700;2023-05-07T09:22:27;9.20;1.00
21849;DHT22;11089;49.852;19.700;2023-05-07T09:25:29;9.10;1.00
21849;DHT22;11089;49.852;19.700;2023-05-07T09:28:31;9.20;47.70
21849;DHT22;11089;49.852;19.700;2023-05-07T09:31:32;9.20;99.90
21849;DHT22;11089;49.852;19.700;2023-05-07T09:34:33;9.10;89.50
21849;DHT22;11089;49.852;19.700;2023-05-07T09:37:35;9.20;99.90
21849;DHT22;11089;49.852;19.700;2023-05-07T09:40:36;8.90;99.90
21849;DHT22;11089;49.852;19.700;2023-05-07T09:43:39;9.00;1.00
21849;DHT22;11089;49.852;19.700;2023-05-07T09:46:43;9.10;99.90
21849;DHT22;11089;49.852;19.700;2023-05-07T09:49:48;9.00;21.20
21849;DHT22;11089;49.852;19.700;2023-05-07T09:52:49;8.90;19.30
21849;DHT22;11089;49.852;19.700;2023-05-07T09:55:51;9.00;99.90
21849;DHT22;11089;49.852;19.700;2023-05-07T09:58:57;9.10;1.00
21849;DHT22;11089;49.852;19.700;2023-05-07T10:02:00;9.10;1.00
21849;DHT22;11089;49.852;19.700;2023-05-07T10:05:02;9.10;1.00
21849;DHT22;11089;49.852;19.700;2023-05-07T10:08:04;8.90;1.00
21849;DHT22;11089;49.852;19.700;2023-05-07T10:11:05;8.90;1.00
21849;DHT22;11089;49.852;19.700;2023-05-07T10:14:07;8.90;99.90
21849;DHT22;11089;49.852;19.700;2023-05-07T10:17:08;8.80;99.90
21849;DHT22;11089;49.852;19.700;2023-05-07T10:20:10;8.80;99.90
21849;DHT22;11089;49.852;19.700;2023-05-07T10:23:13;8.90;1.00
21849;DHT22;11089;49.852;19.700;2023-05-07T10:26:18;8.90;99.90
21849;DHT22;11089;49.852;19.700;2023-05-07T10:29:30;8.80;31.70
21849;DHT22;11089;49.852;19.700;2023-05-07T10:32:42;8.70;99.90
21849;DHT22;11089;49.852;19.700;2023-05-07T10:35:47;8.70;99.90
21849;DHT22;11089;49.852;19.700;2023-05-07T10:38:48;8.80;99.90
21849;DHT22;11089;49.852;19.700;2023-05-07T10:41:49;8.80;1.00
21849;DHT22;11089;49.852;19.700;2023-05-07T10:44:51;8.90;37.00
21849;DHT22;11089;49.852;19.700;2023-05-07T10:48:12;8.80;1.00
21849;DHT22;11089;49.852;19.700;2023-05-07T10:51:21;8.60;1.00
21849;DHT22;11089;49.852;19.700;2023-05-07T10:54:25;8.80;62.00
21849;DHT22;11089;49.852;19.700;2023-05-07T10:57:36;8.80;1.00
21849;DHT22;11089;49.852;19.700;2023-05-07T11:07:29;8.90;1.00
21849;DHT22;11089;49.852;19.700;2023-05-07T11:10:52;8.90;1.00
21849;DHT22;11089;49.852;19.700;2023-05-07T11:13:53;8.90;1.00
21849;DHT22;11089;49.852;19.700;2023-05-07T11:17:02;8.80;1.00
21849;DHT22;11089;49.852;19.700;2023-05-07T11:20:04;8.90;12.10
21849;DHT22;11089;49.852;19.700;2023-05-07T11:23:05;8.90;99.90
21849;DHT22;11089;49.852;19.700;2023-05-07T11:26:08;9.20;1.00
21849;DHT22;11089;49.852;19.700;2023-05-07T11:29:14;9.10;1.00
21849;DHT22;11089;49.852;19.700;2023-05-07T11:32:15;9.20;1.00
21849;DHT22;11089;49.852;19.700;2023-05-07T11:35:16;9.10;99.90
21849;DHT22;11089;49.852;19.700;2023-05-07T11:38:18;9.00;1.00
21849;DHT22;11089;49.852;19.700;2023-05-07T11:41:19;8.90;5.70
21849;DHT22;11089;49.852;19.700;2023-05-07T11:44:21;8.90;1.00
21849;DHT22;11089;49.852;19.700;2023-05-07T11:47:22;8.90;1.00
21849;DHT22;11089;49.852;19.700;2023-05-07T11:50:23;8.80;70.90
21849;DHT22;11089;49.852;19.700;2023-05-07T11:53:27;8.90;1.00
21849;DHT22;11089;49.852;19.700;2023-05-07T11:56:29;8.90;1.00
21849;DHT22;11089;49.852;19.700;2023-05-07T11:59:29;9.00;99.90
21849;DHT22;11089;49.852;19.700;2023-05-07T12:02:30;9.00;1.00
21849;DHT22;11089;49.852;19.700;2023-05-07T12:05:31;8.90;99.90
21849;DHT22;11089;49.852;19.700;2023-05-07T12:08:33;9.00;99.90
21849;DHT22;11089;49.852;19.700;2023-05-07T12:11:37;8.90;99.90
21849;DHT22;11089;49.852;19.700;2023-05-07T12:14:41;9.00;1.00
21849;DHT22;11089;49.852;19.700;2023-05-07T12:17:43;9.00;1.00
21849;DHT22;11089;49.852;19.700;2023-05-07T12:20:44;8.80;99.90
21849;DHT22;11089;49.852;19.700;2023-05-07T12:23:46;8.80;1.00
21849;DHT22;11089;49.852;19.700;2023-05-07T12:26:47;8.80;1.00
21849;DHT22;11089;49.852;19.700;2023-05-07T12:29:50;8.80;1.00
21849;DHT22;11089;49.852;19.700;2023-05-07T12:32:54;8.90;1.00
21849;DHT22;11089;49.852;19.700;2023-05-07T12:35:55;8.90;1.00
21849;DHT22;11089;49.852;19.700;2023-05-07T12:38:59;8.80;1.00
21849;DHT22;11089;49.852;19.700;2023-05-07T12:42:00;8.70;1.00
21849;DHT22;11089;49.852;19.700;2023-05-07T12:45:11;8.70;1.00
21849;DHT22;11089;49.852;19.700;2023-05-07T12:48:13;8.70;1.00
21849;DHT22;11089;49.852;19.700;2023-05-07T12:51:14;8.80;1.00
21849;DHT22;11089;49.852;19.700;2023-05-07T12:54:31;8.90;99.90
21849;DHT22;11089;49.852;19.700;2023-05-07T12:57:38;8.80;99.90
21849;DHT22;11089;49.852;19.700;2023-05-07T13:00:41;8.90;99.90
21849;DHT22;11089;49.852;19.700;2023-05-07T13:03:48;8.80;1.00
21849;DHT22;11089;49.852;19.700;2023-05-07T13:06:49;8.80;99.90
21849;DHT22;11089;49.852;19.700;2023-05-07T13:09:50;8.90;99.90
21849;DHT22;11089;49.852;19.700;2023-05-07T13:12:51;8.90;1.00
21849;DHT22;11089;49.852;19.700;2023-05-07T13:15:53;8.70;1.00
21849;DHT22;11089;49.852;19.700;2023-05-07T13:18:54;8.60;1.00
21849;DHT22;11089;49.852;19.700;2023-05-07T13:21:55;8.80;99.90
21849;DHT22;11089;49.852;19.700;2023-05-07T13:24:56;8.80;99.90
21849;DHT22;11089;49.852;19.700;2023-05-07T13:27:57;8.70;14.70
21849;DHT22;11089;49.852;19.700;2023-05-07T13:30:58;8.70;99.90
21849;DHT22;11089;49.852;19.700;2023-05-07T13:33:59;8.70;99.90
21849;DHT22;11089;49.852;19.700;2023-05-07T13:37:00;8.60;99.90
21849;DHT22;11089;49.852;19.700;2023-05-07T13:40:01;8.60;99.90
21849;DHT22;11089;49.852;19.700;2023-05-07T13:43:02;8.60;99.90
21849;DHT22;11089;49.852;19.700;2023-05-07T13:46:03;8.60;99.90
21849;DHT22;11089;49.852;19.700;2023-05-07T13:49:04;8.60;1.00
21849;DHT22;11089;49.852;19.700;2023-05-07T13:52:05;8.70;99.90
21849;DHT22;11089;49.852;19.700;2023-05-07T13:55:06;8.70;99.90
21849;DHT22;11089;49.852;19.700;2023-05-07T13:58:07;8.80;99.90
21849;DHT22;11089;49.852;19.700;2023-05-07T14:01:08;8.80;99.90
21849;DHT22;11089;49.852;19.700;2023-05-07T14:04:10;8.60;1.00
21849;DHT22;11089;49.852;19.700;2023-05-07T14:07:11;8.50;99.90
21849;DHT22;11089;49.852;19.700;2023-05-07T14:10:12;8.70;79.80
21849;DHT22;11089;49.852;19.700;2023-05-07T14:13:13;8.60;1.00
21849;DHT22;11089;49.852;19.700;2023-05-07T14:16:14;8.60;1.00
21849;DHT22;11089;49.852;19.700;2023-05-07T14:19:15;8.40;1.00
21849;DHT22;11089;49.852;19.700;2023-05-07T14:22:16;8.50;75.10
21849;DHT22;11089;49.852;19.700;2023-05-07T14:25:17;8.40;99.90
21849;DHT22;11089;49.852;19.700;2023-05-07T14:28:19;8.40;74.50
21849;DHT22;11089;49.852;19.700;2023-05-07T14:31:20;8.50;51.30
21849;DHT22;11089;49.852;19.700;2023-05-07T14:34:21;8.40;1.00
21849;DHT22;11089;49.852;19.700;2023-05-07T14:37:23;8.50;99.90
21849;DHT22;11089;49.852;19.700;2023-05-07T14:40:24;8.40;99.90
21849;DHT22;11089;49.852;19.700;2023-05-07T14:43:25;8.40;1.00
21849;DHT22;11089;49.852;19.700;2023-05-07T14:46:26;8.50;1.00
21849;DHT22;11089;49.852;19.700;2023-05-07T14:49:27;8.50;99.90
21849;DHT22;11089;49.852;19.700;2023-05-07T14:52:28;8.40;1.00
21849;DHT22;11089;49.852;19.700;2023-05-07T14:55:29;8.40;1.00
21849;DHT22;11089;49.852;19.700;2023-05-07T14:58:30;8.30;53.20
21849;DHT22;11089;49.852;19.700;2023-05-07T15:01:31;8.10;1.00
21849;DHT22;11089;49.852;19.700;2023-05-07T15:04:32;8.30;1.00
21849;DHT22;11089;49.852;19.700;2023-05-07T15:07:33;8.20;99.90
21849;DHT22;11089;49.852;19.700;2023-05-07T15:10:38;8.30;1.00
21849;DHT22;11089;49.852;19.700;2023-05-07T15:13:44;8.20;99.90
21849;DHT22;11089;49.852;19.700;2023-05-07T15:16:45;8.30;99.90
21849;DHT22;11089;49.852;19.700;2023-05-07T15:19:46;8.20;1.00
21849;DHT22;11089;49.852;19.700;2023-05-07T15:22:47;8.20;1.00
21849;DHT22;11089;49.852;19.700;2023-05-07T15:25:48;8.10;1.00
21849;DHT22;11089;49.852;19.700;2023-05-07T15:28:49;8.10;1.00
21849;DHT22;11089;49.852;19.700;2023-05-07T15:31:50;8.10;99.90
21849;DHT22;11089;49.852;19.700;2023-05-07T15:34:52;8.10;1.00
21849;DHT22;11089;49.852;19.700;2023-05-07T15:37:53;8.20;99.90
21849;DHT22;11089;49.852;19.700;2023-05-07T15:40:54;8.30;1.00
21849;DHT22;11089;49.852;19.700;2023-05-07T15:43:55;8.20;1.00
21849;DHT22;11089;49.852;19.700;2023-05-07T15:46:56;8.20;1.00
21849;DHT22;11089;49.852;19.700;2023-05-07T15:49:57;8.20;1.00
21849;DHT22;11089;49.852;19.700;2023-05-07T15:52:58;8.10;99.90
21849;DHT22;11089;49.852;19.700;2023-05-07T15:55:59;8.00;1.00
21849;DHT22;11089;49.852;19.700;2023-05-07T15:59:00;8.00;1.00
21849;DHT22;11089;49.852;19.700;2023-05-07T16:02:02;8.10;1.00
21849;DHT22;11089;49.852;19.700;2023-05-07T16:05:04;8.10;99.90
21849;DHT22;11089;49.852;19.700;2023-05-07T16:08:05;8.00;42.90
21849;DHT22;11089;49.852;19.700;2023-05-07T16:11:06;7.90;1.00
21849;DHT22;11089;49.852;19.700;2023-05-07T16:14:07;7.90;1.00
21849;DHT22;11089;49.852;19.700;2023-05-07T16:17:08;7.90;99.90
21849;DHT22;11089;49.852;19.700;2023-05-07T16:20:09;7.70;1.00
21849;DHT22;11089;49.852;19.700;2023-05-07T16:23:12;7.70;1.00
21849;DHT22;11089;49.852;19.700;2023-05-07T16:26:13;7.60;46.30
21849;DHT22;11089;49.852;19.700;2023-05-07T16:29:14;7.70;1.00
21849;DHT22;11089;49.852;19.700;2023-05-07T16:32:15;7.70;99.90
21849;DHT22;11089;49.852;19.700;2023-05-07T16:35:16;7.70;99.90
21849;DHT22;11089;49.852;19.700;2023-05-07T16:38:17;7.70;1.00
21849;DHT22;11089;49.852;19.700;2023-05-07T16:41:18;7.70;1.00
21849;DHT22;11089;49.852;19.700;2023-05-07T16:44:19;7.80;99.90
21849;DHT22;11089;49.852;19.700;2023-05-07T16:47:20;7.60;99.90
21849;DHT22;11089;49.852;19.700;2023-05-07T16:50:21;7.60;1.00
21849;DHT22;11089;49.852;19.700;2023-05-07T16:53:22;7.50;1.00
21849;DHT22;11089;49.852;19.700;2023-05-07T16:56:26;7.60;1.00
21849;DHT22;11089;49.852;19.700;2023-05-07T16:59:27;7.60;99.90
21849;DHT22;11089;49.852;19.700;2023-05-07T17:02:32;7.60;99.90
21849;DHT22;11089;49.852;19.700;2023-05-07T17:05:34;7.60;1.00
21849;DHT22;11089;49.852;19.700;2023-05-07T17:08:36;7.60;99.90
21849;DHT22;11089;49.852;19.700;2023-05-07T17:11:36;7.60;1.00
21849;DHT22;11089;49.852;19.700;2023-05-07T17:14:37;7.50;99.90
21849;DHT22;11089;49.852;19.700;2023-05-07T17:17:39;7.50;71.00
21849;DHT22;11089;49.852;19.700;2023-05-07T17:20:41;7.40;99.90
21849;DHT22;11089;49.852;19.700;2023-05-07T17:23:42;7.30;1.00
21849;DHT22;11089;49.852;19.700;2023-05-07T17:26:43;7.30;6.30
21849;DHT22;11089;49.852;19.700;2023-05-07T17:29:44;7.30;1.00
21849;DHT22;11089;49.852;19.700;2023-05-07T17:32:45;7.30;1.00
21849;DHT22;11089;49.852;19.700;2023-05-07T17:35:46;7.30;1.00
21849;DHT22;11089;49.852;19.700;2023-05-07T17:38:47;7.30;1.00
21849;DHT22;11089;49.852;19.700;2023-05-07T17:41:48;7.40;1.00
21849;DHT22;11089;49.852;19.700;2023-05-07T17:44:48;7.40;1.00
21849;DHT22;11089;49.852;19.700;2023-05-07T17:47:50;7.30;1.00
21849;DHT22;11089;49.852;19.700;2023-05-07T17:50:50;7.30;1.00
21849;DHT22;11089;49.852;19.700;2023-05-07T17:53:51;7.20;1.00
21849;DHT22;11089;49.852;19.700;2023-05-07T17:56:53;7.20;1.00
21849;DHT22;11089;49.852;19.700;2023-05-07T17:59:53;7.20;1.00
21849;DHT22;11089;49.852;19.700;2023-05-07T18:02:54;7.20;1.00
21849;DHT22;11089;49.852;19.700;2023-05-07T18:05:56;7.20;1.00
21849;DHT22;11089;49.852;19.700;2023-05-07T18:08:57;7.10;1.00
21849;DHT22;11089;49.852;19.700;2023-05-07T18:11:58;7.20;1.00
21849;DHT22;11089;49.852;19.700;2023-05-07T18:14:59;7.20;1.00
21849;DHT22;11089;49.852;19.700;2023-05-07T18:18:00;7.10;1.00
21849;DHT22;11089;49.852;19.700;2023-05-07T18:21:01;7.00;1.00
21849;DHT22;11089;49.852;19.700;2023-05-07T18:24:02;7.10;18.50
21849;DHT22;11089;49.852;19.700;2023-05-07T18:27:04;7.00;1.00
21849;DHT22;11089;49.852;19.700;2023-05-07T18:30:05;7.00;1.00
21849;DHT22;11089;49.852;19.700;2023-05-07T18:33:06;7.00;1.00
21849;DHT22;11089;49.852;19.700;2023-05-07T18:36:07;7.10;1.00
21849;DHT22;11089;49.852;19.700;2023-05-07T18:39:08;7.10;1.00
21849;DHT22;11089;49.852;19.700;2023-05-07T18:42:09;7.10;1.00
21849;DHT22;11089;49.852;19.700;2023-05-07T18:45:11;7.00;99.90
21849;DHT22;11089;49.852;19.700;2023-05-07T18:48:12;7.00;99.90
21849;DHT22;11089;49.852;19.700;2023-05-07T18:51:13;6.90;1.00
21849;DHT22;11089;49.852;19.700;2023-05-07T18:54:14;7.00;1.00
21849;DHT22;11089;49.852;19.700;2023-05-07T18:57:15;7.00;1.00
21849;DHT22;11089;49.852;19.700;2023-05-07T19:00:16;7.00;1.00
21849;DHT22;11089;49.852;19.700;2023-05-07T19:03:17;6.80;99.90
21849;DHT22;11089;49.852;19.700;2023-05-07T19:06:18;6.80;1.00
21849;DHT22;11089;49.852;19.700;2023-05-07T19:09:20;6.80;1.00
21849;DHT22;11089;49.852;19.700;2023-05-07T19:12:21;6.90;1.00
21849;DHT22;11089;49.852;19.700;2023-05-07T19:15:22;6.90;1.00
21849;DHT22;11089;49.852;19.700;2023-05-07T19:18:23;6.80;1.00